sensor_id;sensor_type;location;lat;lon;timestamp;pressure;altitude;pressure_sealevel;temperature;humidity
68380;BME280;57711;53.196;19.638;2024-01-15T00:00:29;97748.93;;;0.85;77.46
68380;BME280;57711;53.196;19.638;2024-01-15T00:03:17;97747.30;;;0.85;76.50
68380;BME280;57711;53.196;19.638;2024-01-15T00:05:44;97740.70;;;0.85;76.41
68380;BME280;57711;53.196;19.638;2024-01-15T00:08:11;97738.32;;;0.86;76.44
68380;BME280;57711;53.196;19.638;2024-01-15T00:10:38;97734.05;;;0.86;76.36
68380;BME280;57711;53.196;19.638;2024-01-15T00:13:07;97725.57;;;0.86;76.38
68380;BME280;57711;53.196;19.638;2024-01-15T00:15:34;97717.52;;;0.84;76.35
68380;BME280;57711;53.196;19.638;2024-01-15T00:18:01;97721.61;;;0.84;76.40
68380;BME280;57711;53.196;19.638;2024-01-15T00:20:28;97712.18;;;0.84;76.36
68380;BME280;57711;53.196;19.638;2024-01-15T00:22:56;97704.14;;;0.83;76.50
68380;BME280;57711;53.196;19.638;2024-01-15T00:25:24;97699.17;;;0.83;76.37
68380;BME280;57711;53.196;19.638;2024-01-15T00:27:51;97701.88;;;0.84;76.35
68380;BME280;57711;53.196;19.638;2024-01-15T00:30:18;97696.80;;;0.83;76.36
68380;BME280;57711;53.196;19.638;2024-01-15T00:32:45;97692.04;;;0.85;76.26
68380;BME280;57711;53.196;19.638;2024-01-15T00:35:12;97688.73;;;0.84;76.32
68380;BME280;57711;53.196;19.638;2024-01-15T00:37:39;97682.23;;;0.81;76.31
68380;BME280;57711;53.196;19.638;2024-01-15T00:40:07;97684.07;;;0.80;76.37
68380;BME280;57711;53.196;19.638;2024-01-15T00:42:34;97676.49;;;0.81;76.31
68380;BME280;57711;53.196;19.638;2024-01-15T00:45:02;97672.27;;;0.83;76.27
68380;BME280;57711;53.196;19.638;2024-01-15T00:47:29;97674.70;;;0.83;76.26
68380;BME280;57711;53.196;19.638;2024-01-15T00:49:56;97670.02;;;0.82;76.61
68380;BME280;57711;53.196;19.638;2024-01-15T00:52:23;97666.50;;;0.82;76.74
68380;BME280;57711;53.196;19.638;2024-01-15T00:54:50;97662.69;;;0.81;76.35
68380;BME280;57711;53.196;19.638;2024-01-15T00:57:17;97657.28;;;0.80;76.35
68380;BME280;57711;53.196;19.638;2024-01-15T00:59:47;97654.89;;;0.78;76.40
68380;BME280;57711;53.196;19.638;2024-01-15T01:02:14;97654.16;;;0.77;76.45
68380;BME280;57711;53.196;19.638;2024-01-15T01:04:41;97654.51;;;0.77;76.37
68380;BME280;57711;53.196;19.638;2024-01-15T01:07:08;97648.29;;;0.77;76.49
68380;BME280;57711;53.196;19.638;2024-01-15T01:09:35;97647.54;;;0.75;76.48
68380;BME280;57711;53.196;19.638;2024-01-15T01:12:03;97643.20;;;0.74;76.51
68380;BME280;57711;53.196;19.638;2024-01-15T01:14:30;97641.89;;;0.72;76.41
68380;BME280;57711;53.196;19.638;2024-01-15T01:16:57;97630.48;;;0.71;76.38
68380;BME280;57711;53.196;19.638;2024-01-15T01:19:24;97626.78;;;0.70;76.41
68380;BME280;57711;53.196;19.638;2024-01-15T01:21:52;97624.94;;;0.69;76.49
68380;BME280;57711;53.196;19.638;2024-01-15T01:24:19;97616.42;;;0.69;76.40
68380;BME280;57711;53.196;19.638;2024-01-15T01:26:46;97617.83;;;0.69;76.48
68380;BME280;57711;53.196;19.638;2024-01-15T01:29:13;97616.70;;;0.70;76.49
68380;BME280;57711;53.196;19.638;2024-01-15T01:31:44;97612.41;;;0.70;76.46
68380;BME280;57711;53.196;19.638;2024-01-15T01:34:16;97607.52;;;0.71;76.49
68380;BME280;57711;53.196;19.638;2024-01-15T01:36:43;97600.42;;;0.73;76.44
68380;BME280;57711;53.196;19.638;2024-01-15T01:39:10;97592.98;;;0.74;76.46
68380;BME280;57711;53.196;19.638;2024-01-15T01:41:38;97585.96;;;0.75;76.49
68380;BME280;57711;53.196;19.638;2024-01-15T01:44:06;97582.86;;;0.76;76.46
68380;BME280;57711;53.196;19.638;2024-01-15T01:46:36;97579.16;;;0.74;76.48
68380;BME280;57711;53.196;19.638;2024-01-15T01:49:08;97576.02;;;0.71;76.49
68380;BME280;57711;53.196;19.638;2024-01-15T01:51:36;97574.17;;;0.70;76.47
68380;BME280;57711;53.196;19.638;2024-01-15T01:54:05;97569.77;;;0.70;76.50
68380;BME280;57711;53.196;19.638;2024-01-15T01:56:34;97564.73;;;0.68;76.39
68380;BME280;57711;53.196;19.638;2024-01-15T01:59:02;97560.64;;;0.68;76.52
68380;BME280;57711;53.196;19.638;2024-01-15T02:01:31;97557.20;;;0.69;76.46
68380;BME280;57711;53.196;19.638;2024-01-15T02:03:58;97553.25;;;0.69;76.50
68380;BME280;57711;53.196;19.638;2024-01-15T02:06:27;97544.34;;;0.69;76.44
68380;BME280;57711;53.196;19.638;2024-01-15T02:08:55;97541.65;;;0.70;76.41
68380;BME280;57711;53.196;19.638;2024-01-15T02:11:22;97539.85;;;0.70;76.44
68380;BME280;57711;53.196;19.638;2024-01-15T02:13:49;97539.31;;;0.70;76.53
68380;BME280;57711;53.196;19.638;2024-01-15T02:16:16;97536.54;;;0.69;76.53
68380;BME280;57711;53.196;19.638;2024-01-15T02:18:45;97531.23;;;0.69;76.56
68380;BME280;57711;53.196;19.638;2024-01-15T02:21:13;97529.96;;;0.69;76.50
68380;BME280;57711;53.196;19.638;2024-01-15T02:23:40;97525.20;;;0.69;76.54
68380;BME280;57711;53.196;19.638;2024-01-15T02:26:07;97523.52;;;0.70;76.63
68380;BME280;57711;53.196;19.638;2024-01-15T02:28:35;97516.83;;;0.71;76.54
68380;BME280;57711;53.196;19.638;2024-01-15T02:31:02;97518.42;;;0.73;76.44
68380;BME280;57711;53.196;19.638;2024-01-15T02:33:29;97511.98;;;0.75;76.48
68380;BME280;57711;53.196;19.638;2024-01-15T02:35:56;97504.02;;;0.77;76.51
68380;BME280;57711;53.196;19.638;2024-01-15T02:38:23;97505.58;;;0.79;76.51
68380;BME280;57711;53.196;19.638;2024-01-15T02:40:50;97499.94;;;0.81;76.44
68380;BME280;57711;53.196;19.638;2024-01-15T02:43:18;97498.59;;;0.80;76.48
68380;BME280;57711;53.196;19.638;2024-01-15T02:45:46;97491.48;;;0.80;76.41
68380;BME280;57711;53.196;19.638;2024-01-15T02:48:16;97483.42;;;0.79;76.40
68380;BME280;57711;53.196;19.638;2024-01-15T02:50:43;97479.08;;;0.78;76.52
68380;BME280;57711;53.196;19.638;2024-01-15T02:53:10;97471.33;;;0.77;76.48
68380;BME280;57711;53.196;19.638;2024-01-15T02:55:37;97468.58;;;0.75;76.48
68380;BME280;57711;53.196;19.638;2024-01-15T02:58:04;97469.50;;;0.75;76.51
68380;BME280;57711;53.196;19.638;2024-01-15T03:00:31;97467.37;;;0.75;76.44
68380;BME280;57711;53.196;19.638;2024-01-15T03:02:58;97459.20;;;0.75;76.53
68380;BME280;57711;53.196;19.638;2024-01-15T03:05:26;97454.37;;;0.75;76.55
68380;BME280;57711;53.196;19.638;2024-01-15T03:07:53;97453.95;;;0.76;76.46
68380;BME280;57711;53.196;19.638;2024-01-15T03:10:20;97453.50;;;0.77;76.57
68380;BME280;57711;53.196;19.638;2024-01-15T03:12:47;97448.84;;;0.78;76.50
68380;BME280;57711;53.196;19.638;2024-01-15T03:15:14;97441.17;;;0.76;76.56
68380;BME280;57711;53.196;19.638;2024-01-15T03:17:41;97438.59;;;0.74;76.56
68380;BME280;57711;53.196;19.638;2024-01-15T03:20:10;97433.17;;;0.74;76.41
68380;BME280;57711;53.196;19.638;2024-01-15T03:22:37;97427.48;;;0.73;76.46
68380;BME280;57711;53.196;19.638;2024-01-15T03:25:05;97426.27;;;0.75;76.50
68380;BME280;57711;53.196;19.638;2024-01-15T03:27:33;97421.93;;;0.76;76.55
68380;BME280;57711;53.196;19.638;2024-01-15T03:30:00;97423.82;;;0.77;76.51
68380;BME280;57711;53.196;19.638;2024-01-15T03:32:29;97417.95;;;0.75;76.49
68380;BME280;57711;53.196;19.638;2024-01-15T03:34:56;97413.91;;;0.74;76.49
68380;BME280;57711;53.196;19.638;2024-01-15T03:37:23;97413.46;;;0.75;76.50
68380;BME280;57711;53.196;19.638;2024-01-15T03:39:50;97412.89;;;0.75;76.47
68380;BME280;57711;53.196;19.638;2024-01-15T03:42:18;97413.37;;;0.76;76.46
68380;BME280;57711;53.196;19.638;2024-01-15T03:44:45;97406.23;;;0.77;76.46
68380;BME280;57711;53.196;19.638;2024-01-15T03:47:12;97407.10;;;0.77;76.45
68380;BME280;57711;53.196;19.638;2024-01-15T03:49:39;97403.55;;;0.75;76.48
68380;BME280;57711;53.196;19.638;2024-01-15T03:52:06;97402.88;;;0.74;76.52
68380;BME280;57711;53.196;19.638;2024-01-15T03:54:33;97402.04;;;0.74;76.49
68380;BME280;57711;53.196;19.638;2024-01-15T03:57:00;97396.45;;;0.72;76.44
68380;BME280;57711;53.196;19.638;2024-01-15T03:59:27;97395.92;;;0.71;76.46
68380;BME280;57711;53.196;19.638;2024-01-15T04:01:54;97397.10;;;0.70;76.53
68380;BME280;57711;53.196;19.638;2024-01-15T04:04:21;97392.61;;;0.70;76.54
68380;BME280;57711;53.196;19.638;2024-01-15T04:06:48;97391.43;;;0.69;76.43
68380;BME280;57711;53.196;19.638;2024-01-15T04:09:15;97387.51;;;0.70;76.48
68380;BME280;57711;53.196;19.638;2024-01-15T04:11:42;97380.62;;;0.71;76.45
68380;BME280;57711;53.196;19.638;2024-01-15T04:14:09;97381.38;;;0.72;76.48
68380;BME280;57711;53.196;19.638;2024-01-15T04:16:37;97375.52;;;0.72;76.57
68380;BME280;57711;53.196;19.638;2024-01-15T04:19:04;97369.61;;;0.72;76.55
68380;BME280;57711;53.196;19.638;2024-01-15T04:21:32;97367.11;;;0.72;76.55
68380;BME280;57711;53.196;19.638;2024-01-15T04:23:59;97358.94;;;0.73;76.56
68380;BME280;57711;53.196;19.638;2024-01-15T04:26:26;97354.58;;;0.73;76.50
68380;BME280;57711;53.196;19.638;2024-01-15T04:28:53;97350.52;;;0.73;76.42
68380;BME280;57711;53.196;19.638;2024-01-15T04:31:24;97348.19;;;0.71;76.92
68380;BME280;57711;53.196;19.638;2024-01-15T04:33:51;97343.52;;;0.70;76.56
68380;BME280;57711;53.196;19.638;2024-01-15T04:36:19;97338.56;;;0.68;76.49
68380;BME280;57711;53.196;19.638;2024-01-15T04:38:46;97332.79;;;0.67;76.52
68380;BME280;57711;53.196;19.638;2024-01-15T04:41:13;97326.98;;;0.68;76.54
68380;BME280;57711;53.196;19.638;2024-01-15T04:43:40;97327.81;;;0.69;76.50
68380;BME280;57711;53.196;19.638;2024-01-15T04:46:07;97323.19;;;0.67;76.44
68380;BME280;57711;53.196;19.638;2024-01-15T04:48:35;97319.14;;;0.65;76.63
68380;BME280;57711;53.196;19.638;2024-01-15T04:51:04;97313.88;;;0.64;76.48
68380;BME280;57711;53.196;19.638;2024-01-15T04:53:34;97312.27;;;0.64;76.54
68380;BME280;57711;53.196;19.638;2024-01-15T04:56:01;97309.09;;;0.64;76.48
68380;BME280;57711;53.196;19.638;2024-01-15T04:58:29;97305.02;;;0.62;76.48
68380;BME280;57711;53.196;19.638;2024-01-15T05:00:56;97301.69;;;0.60;76.48
68380;BME280;57711;53.196;19.638;2024-01-15T05:03:23;97297.52;;;0.57;76.49
68380;BME280;57711;53.196;19.638;2024-01-15T05:05:51;97296.66;;;0.53;76.53
68380;BME280;57711;53.196;19.638;2024-01-15T05:08:18;97287.17;;;0.50;76.66
68380;BME280;57711;53.196;19.638;2024-01-15T05:10:45;97283.79;;;0.48;76.63
68380;BME280;57711;53.196;19.638;2024-01-15T05:13:12;97282.36;;;0.46;76.53
68380;BME280;57711;53.196;19.638;2024-01-15T05:15:39;97272.52;;;0.43;76.64
68380;BME280;57711;53.196;19.638;2024-01-15T05:18:07;97267.92;;;0.41;76.57
68380;BME280;57711;53.196;19.638;2024-01-15T05:20:34;97265.84;;;0.39;76.70
68380;BME280;57711;53.196;19.638;2024-01-15T05:23:01;97260.61;;;0.37;76.76
68380;BME280;57711;53.196;19.638;2024-01-15T05:25:28;97253.02;;;0.37;76.95
68380;BME280;57711;53.196;19.638;2024-01-15T05:27:55;97250.01;;;0.36;76.71
68380;BME280;57711;53.196;19.638;2024-01-15T05:30:22;97250.89;;;0.37;76.74
68380;BME280;57711;53.196;19.638;2024-01-15T05:32:50;97250.13;;;0.35;76.68
68380;BME280;57711;53.196;19.638;2024-01-15T05:35:17;97257.98;;;0.35;76.81
68380;BME280;57711;53.196;19.638;2024-01-15T05:37:45;97251.80;;;0.34;76.72
68380;BME280;57711;53.196;19.638;2024-01-15T05:40:12;97245.31;;;0.34;76.70
68380;BME280;57711;53.196;19.638;2024-01-15T05:42:41;97248.02;;;0.35;76.82
68380;BME280;57711;53.196;19.638;2024-01-15T05:45:09;97245.47;;;0.36;76.73
68380;BME280;57711;53.196;19.638;2024-01-15T05:47:36;97247.42;;;0.36;76.78
68380;BME280;57711;53.196;19.638;2024-01-15T05:50:04;97240.55;;;0.33;76.71
68380;BME280;57711;53.196;19.638;2024-01-15T05:52:31;97249.39;;;0.32;76.76
68380;BME280;57711;53.196;19.638;2024-01-15T05:54:58;97254.02;;;0.30;76.68
68380;BME280;57711;53.196;19.638;2024-01-15T05:57:26;97254.56;;;0.30;76.69
68380;BME280;57711;53.196;19.638;2024-01-15T05:59:53;97256.83;;;0.30;76.74
68380;BME280;57711;53.196;19.638;2024-01-15T06:02:21;97255.28;;;0.32;77.07
68380;BME280;57711;53.196;19.638;2024-01-15T06:04:48;97252.73;;;0.30;77.25
68380;BME280;57711;53.196;19.638;2024-01-15T06:07:15;97250.85;;;0.30;77.02
68380;BME280;57711;53.196;19.638;2024-01-15T06:09:42;97253.92;;;0.29;76.91
68380;BME280;57711;53.196;19.638;2024-01-15T06:12:09;97254.24;;;0.31;76.92
68380;BME280;57711;53.196;19.638;2024-01-15T06:14:36;97247.73;;;0.32;76.80
68380;BME280;57711;53.196;19.638;2024-01-15T06:17:03;97248.05;;;0.35;76.80
68380;BME280;57711;53.196;19.638;2024-01-15T06:19:30;97247.80;;;0.35;77.06
68380;BME280;57711;53.196;19.638;2024-01-15T06:21:57;97248.45;;;0.36;76.85
68380;BME280;57711;53.196;19.638;2024-01-15T06:24:25;97245.95;;;0.36;76.78
68380;BME280;57711;53.196;19.638;2024-01-15T06:26:52;97250.17;;;0.36;76.74
68380;BME280;57711;53.196;19.638;2024-01-15T06:29:19;97260.45;;;0.37;76.78
68380;BME280;57711;53.196;19.638;2024-01-15T06:31:46;97258.85;;;0.37;76.69
68380;BME280;57711;53.196;19.638;2024-01-15T06:34:15;97261.94;;;0.36;76.66
68380;BME280;57711;53.196;19.638;2024-01-15T06:36:42;97265.65;;;0.35;76.90
68380;BME280;57711;53.196;19.638;2024-01-15T06:39:10;97275.04;;;0.35;76.75
68380;BME280;57711;53.196;19.638;2024-01-15T06:41:37;97272.88;;;0.33;76.62
68380;BME280;57711;53.196;19.638;2024-01-15T06:44:10;97280.41;;;0.35;76.65
68380;BME280;57711;53.196;19.638;2024-01-15T06:46:45;97281.33;;;0.34;76.68
68380;BME280;57711;53.196;19.638;2024-01-15T06:49:12;97283.66;;;0.36;76.63
68380;BME280;57711;53.196;19.638;2024-01-15T06:51:39;97292.52;;;0.36;76.50
68380;BME280;57711;53.196;19.638;2024-01-15T06:54:06;97287.95;;;0.36;76.55
68380;BME280;57711;53.196;19.638;2024-01-15T06:56:34;97294.10;;;0.36;76.63
68380;BME280;57711;53.196;19.638;2024-01-15T06:59:01;97292.85;;;0.36;76.46
68380;BME280;57711;53.196;19.638;2024-01-15T07:01:29;97290.02;;;0.36;76.56
68380;BME280;57711;53.196;19.638;2024-01-15T07:03:56;97292.33;;;0.39;76.54
68380;BME280;57711;53.196;19.638;2024-01-15T07:06:23;97285.33;;;0.39;76.45
68380;BME280;57711;53.196;19.638;2024-01-15T07:08:50;97285.84;;;0.40;76.37
68380;BME280;57711;53.196;19.638;2024-01-15T07:11:17;97285.20;;;0.40;76.43
68380;BME280;57711;53.196;19.638;2024-01-15T07:13:45;97291.16;;;0.41;76.31
68380;BME280;57711;53.196;19.638;2024-01-15T07:16:12;97295.31;;;0.41;76.25
68380;BME280;57711;53.196;19.638;2024-01-15T07:18:42;97296.39;;;0.41;76.28
68380;BME280;57711;53.196;19.638;2024-01-15T07:21:09;97293.59;;;0.42;76.36
68380;BME280;57711;53.196;19.638;2024-01-15T07:23:36;97293.73;;;0.42;76.33
68380;BME280;57711;53.196;19.638;2024-01-15T07:26:03;97290.15;;;0.41;76.27
68380;BME280;57711;53.196;19.638;2024-01-15T07:28:31;97289.99;;;0.39;76.33
68380;BME280;57711;53.196;19.638;2024-01-15T07:30:58;97288.34;;;0.37;76.36
68380;BME280;57711;53.196;19.638;2024-01-15T07:33:28;97293.80;;;0.38;76.39
68380;BME280;57711;53.196;19.638;2024-01-15T07:35:55;97297.09;;;0.39;76.35
68380;BME280;57711;53.196;19.638;2024-01-15T07:38:25;97292.89;;;0.38;76.29
68380;BME280;57711;53.196;19.638;2024-01-15T07:40:52;97294.68;;;0.38;76.30
68380;BME280;57711;53.196;19.638;2024-01-15T07:43:20;97292.49;;;0.36;76.27
68380;BME280;57711;53.196;19.638;2024-01-15T07:45:47;97287.41;;;0.36;76.29
68380;BME280;57711;53.196;19.638;2024-01-15T07:48:14;97290.02;;;0.36;76.30
68380;BME280;57711;53.196;19.638;2024-01-15T07:50:42;97291.40;;;0.37;76.34
68380;BME280;57711;53.196;19.638;2024-01-15T07:53:09;97289.23;;;0.37;76.34
68380;BME280;57711;53.196;19.638;2024-01-15T07:55:36;97287.58;;;0.36;76.25
68380;BME280;57711;53.196;19.638;2024-01-15T07:58:03;97283.77;;;0.35;76.27
68380;BME280;57711;53.196;19.638;2024-01-15T08:00:41;97281.09;;;0.33;76.29
68380;BME280;57711;53.196;19.638;2024-01-15T08:03:09;97282.52;;;0.33;76.25
68380;BME280;57711;53.196;19.638;2024-01-15T08:05:36;97287.93;;;0.32;76.19
68380;BME280;57711;53.196;19.638;2024-01-15T08:08:04;97284.23;;;0.32;76.30
68380;BME280;57711;53.196;19.638;2024-01-15T08:10:31;97284.59;;;0.32;76.32
68380;BME280;57711;53.196;19.638;2024-01-15T08:12:58;97282.52;;;0.31;76.37
68380;BME280;57711;53.196;19.638;2024-01-15T08:15:25;97286.59;;;0.31;76.31
68380;BME280;57711;53.196;19.638;2024-01-15T08:17:57;97284.16;;;0.33;76.34
68380;BME280;57711;53.196;19.638;2024-01-15T08:20:24;97285.96;;;0.34;76.34
68380;BME280;57711;53.196;19.638;2024-01-15T08:22:52;97286.59;;;0.35;76.26
68380;BME280;57711;53.196;19.638;2024-01-15T08:25:19;97281.08;;;0.33;76.27
68380;BME280;57711;53.196;19.638;2024-01-15T08:27:46;97281.84;;;0.33;76.35
68380;BME280;57711;53.196;19.638;2024-01-15T08:30:14;97283.41;;;0.33;76.34
68380;BME280;57711;53.196;19.638;2024-01-15T08:32:41;97271.11;;;0.35;76.37
68380;BME280;57711;53.196;19.638;2024-01-15T08:35:10;97265.45;;;0.37;76.29
68380;BME280;57711;53.196;19.638;2024-01-15T08:37:38;97264.64;;;0.40;76.41
68380;BME280;57711;53.196;19.638;2024-01-15T08:40:05;97266.35;;;0.41;76.24
68380;BME280;57711;53.196;19.638;2024-01-15T08:42:32;97262.54;;;0.40;76.27
68380;BME280;57711;53.196;19.638;2024-01-15T08:44:59;97257.43;;;0.41;76.29
68380;BME280;57711;53.196;19.638;2024-01-15T08:47:27;97263.94;;;0.40;76.43
68380;BME280;57711;53.196;19.638;2024-01-15T08:49:54;97264.39;;;0.33;76.36
68380;BME280;57711;53.196;19.638;2024-01-15T08:52:21;97266.98;;;0.25;76.47
68380;BME280;57711;53.196;19.638;2024-01-15T08:54:48;97271.27;;;0.19;76.80
68380;BME280;57711;53.196;19.638;2024-01-15T08:57:16;97266.87;;;0.16;76.92
68380;BME280;57711;53.196;19.638;2024-01-15T08:59:43;97264.61;;;0.16;76.68
68380;BME280;57711;53.196;19.638;2024-01-15T09:02:10;97262.19;;;0.15;76.64
68380;BME280;57711;53.196;19.638;2024-01-15T09:04:36;97261.80;;;0.15;76.63
68380;BME280;57711;53.196;19.638;2024-01-15T09:07:04;97262.41;;;0.17;76.62
68380;BME280;57711;53.196;19.638;2024-01-15T09:09:31;97257.77;;;0.17;76.52
68380;BME280;57711;53.196;19.638;2024-01-15T09:11:58;97259.20;;;0.16;76.60
68380;BME280;57711;53.196;19.638;2024-01-15T09:14:25;97257.64;;;0.18;76.55
68380;BME280;57711;53.196;19.638;2024-01-15T09:17:04;97256.86;;;0.21;76.54
68380;BME280;57711;53.196;19.638;2024-01-15T09:19:32;97255.77;;;0.23;76.58
68380;BME280;57711;53.196;19.638;2024-01-15T09:21:59;97254.25;;;0.22;76.44
68380;BME280;57711;53.196;19.638;2024-01-15T09:24:27;97258.05;;;0.25;76.59
68380;BME280;57711;53.196;19.638;2024-01-15T09:26:55;97256.70;;;0.28;76.57
68380;BME280;57711;53.196;19.638;2024-01-15T09:29:22;97253.33;;;0.32;76.61
68380;BME280;57711;53.196;19.638;2024-01-15T09:31:51;97247.23;;;0.36;76.45
68380;BME280;57711;53.196;19.638;2024-01-15T09:34:19;97248.94;;;0.39;76.48
68380;BME280;57711;53.196;19.638;2024-01-15T09:36:46;97244.93;;;0.42;76.52
68380;BME280;57711;53.196;19.638;2024-01-15T09:39:16;97241.84;;;0.44;76.46
68380;BME280;57711;53.196;19.638;2024-01-15T09:41:43;97250.41;;;0.42;76.32
68380;BME280;57711;53.196;19.638;2024-01-15T09:44:10;97248.58;;;0.40;76.36
68380;BME280;57711;53.196;19.638;2024-01-15T09:46:39;97249.21;;;0.40;76.44
68380;BME280;57711;53.196;19.638;2024-01-15T09:49:08;97251.00;;;0.42;76.35
68380;BME280;57711;53.196;19.638;2024-01-15T09:51:35;97258.23;;;0.42;76.44
68380;BME280;57711;53.196;19.638;2024-01-15T09:54:04;97258.65;;;0.43;76.36
68380;BME280;57711;53.196;19.638;2024-01-15T09:56:31;97256.67;;;0.42;76.32
68380;BME280;57711;53.196;19.638;2024-01-15T09:58:59;97250.80;;;0.38;76.37
68380;BME280;57711;53.196;19.638;2024-01-15T10:01:28;97247.63;;;0.37;76.44
68380;BME280;57711;53.196;19.638;2024-01-15T10:03:55;97243.00;;;0.37;76.41
68380;BME280;57711;53.196;19.638;2024-01-15T10:06:22;97243.30;;;0.38;76.42
68380;BME280;57711;53.196;19.638;2024-01-15T10:08:51;97232.50;;;0.38;76.42
68380;BME280;57711;53.196;19.638;2024-01-15T10:11:18;97224.07;;;0.39;76.37
68380;BME280;57711;53.196;19.638;2024-01-15T10:13:49;97222.29;;;0.41;76.41
68380;BME280;57711;53.196;19.638;2024-01-15T10:16:23;97219.25;;;0.43;76.38
68380;BME280;57711;53.196;19.638;2024-01-15T10:18:51;97219.07;;;0.44;76.33
68380;BME280;57711;53.196;19.638;2024-01-15T10:21:18;97216.99;;;0.46;76.38
68380;BME280;57711;53.196;19.638;2024-01-15T10:23:46;97216.97;;;0.46;76.29
68380;BME280;57711;53.196;19.638;2024-01-15T10:26:13;97214.27;;;0.46;76.36
68380;BME280;57711;53.196;19.638;2024-01-15T10:28:44;97208.39;;;0.48;76.37
68380;BME280;57711;53.196;19.638;2024-01-15T10:31:11;97204.38;;;0.49;76.36
68380;BME280;57711;53.196;19.638;2024-01-15T10:33:39;97204.16;;;0.51;76.36
68380;BME280;57711;53.196;19.638;2024-01-15T10:36:09;97205.02;;;0.52;76.29
68380;BME280;57711;53.196;19.638;2024-01-15T10:38:37;97206.59;;;0.50;76.22
68380;BME280;57711;53.196;19.638;2024-01-15T10:41:04;97204.61;;;0.43;76.42
68380;BME280;57711;53.196;19.638;2024-01-15T10:43:31;97199.45;;;0.36;76.52
68380;BME280;57711;53.196;19.638;2024-01-15T10:45:59;97199.48;;;0.31;76.43
68380;BME280;57711;53.196;19.638;2024-01-15T10:48:26;97191.90;;;0.31;76.46
68380;BME280;57711;53.196;19.638;2024-01-15T10:50:59;97185.13;;;0.31;76.42
68380;BME280;57711;53.196;19.638;2024-01-15T10:53:26;97184.63;;;0.33;76.44
68380;BME280;57711;53.196;19.638;2024-01-15T10:55:56;97177.61;;;0.37;76.48
68380;BME280;57711;53.196;19.638;2024-01-15T10:58:24;97184.33;;;0.42;76.52
68380;BME280;57711;53.196;19.638;2024-01-15T11:00:55;97181.58;;;0.46;76.59
68380;BME280;57711;53.196;19.638;2024-01-15T11:03:23;97185.02;;;0.51;76.56
68380;BME280;57711;53.196;19.638;2024-01-15T11:05:50;97188.46;;;0.54;76.38
68380;BME280;57711;53.196;19.638;2024-01-15T11:08:17;97185.86;;;0.55;76.39
68380;BME280;57711;53.196;19.638;2024-01-15T11:10:52;97181.88;;;0.54;76.40
68380;BME280;57711;53.196;19.638;2024-01-15T11:13:40;97185.25;;;0.54;76.32
68380;BME280;57711;53.196;19.638;2024-01-15T11:16:09;97187.02;;;0.52;76.34
68380;BME280;57711;53.196;19.638;2024-01-15T11:26:44;97189.89;;;0.52;76.38
68380;BME280;57711;53.196;19.638;2024-01-15T11:34:58;97188.27;;;0.52;76.29
68380;BME280;57711;53.196;19.638;2024-01-15T11:37:28;97180.39;;;0.47;76.19
68380;BME280;57711;53.196;19.638;2024-01-15T11:40:05;97176.04;;;0.44;76.13
68380;BME280;57711;53.196;19.638;2024-01-15T11:42:32;97175.50;;;0.43;76.21
68380;BME280;57711;53.196;19.638;2024-01-15T11:44:59;97177.57;;;0.44;76.27
68380;BME280;57711;53.196;19.638;2024-01-15T11:47:51;97172.11;;;0.45;76.32
68380;BME280;57711;53.196;19.638;2024-01-15T11:50:29;97166.31;;;0.49;76.33
68380;BME280;57711;53.196;19.638;2024-01-15T11:53:00;97166.64;;;0.55;76.37
68380;BME280;57711;53.196;19.638;2024-01-15T11:55:39;97160.83;;;0.58;76.23
68380;BME280;57711;53.196;19.638;2024-01-15T11:58:09;97166.93;;;0.60;76.10
68380;BME280;57711;53.196;19.638;2024-01-15T12:00:49;97157.24;;;0.59;76.12
68380;BME280;57711;53.196;19.638;2024-01-15T12:03:21;97157.29;;;0.60;76.13
68380;BME280;57711;53.196;19.638;2024-01-15T12:05:48;97159.19;;;0.62;76.09
68380;BME280;57711;53.196;19.638;2024-01-15T12:08:23;97159.89;;;0.64;76.06
68380;BME280;57711;53.196;19.638;2024-01-15T12:10:51;97155.47;;;0.64;76.05
68380;BME280;57711;53.196;19.638;2024-01-15T12:13:19;97161.51;;;0.64;76.12
68380;BME280;57711;53.196;19.638;2024-01-15T12:15:47;97155.69;;;0.64;76.09
68380;BME280;57711;53.196;19.638;2024-01-15T12:18:17;97158.23;;;0.61;76.19
68380;BME280;57711;53.196;19.638;2024-01-15T12:20:46;97157.40;;;0.59;76.12
68380;BME280;57711;53.196;19.638;2024-01-15T12:23:15;97160.70;;;0.56;76.11
68380;BME280;57711;53.196;19.638;2024-01-15T12:25:44;97154.38;;;0.53;76.19
68380;BME280;57711;53.196;19.638;2024-01-15T12:28:11;97158.23;;;0.52;76.18
68380;BME280;57711;53.196;19.638;2024-01-15T12:30:38;97152.30;;;0.51;76.20
68380;BME280;57711;53.196;19.638;2024-01-15T12:33:07;97144.52;;;0.50;76.21
68380;BME280;57711;53.196;19.638;2024-01-15T12:35:36;97146.94;;;0.51;76.20
68380;BME280;57711;53.196;19.638;2024-01-15T12:38:04;97150.14;;;0.51;76.27
68380;BME280;57711;53.196;19.638;2024-01-15T12:40:33;97156.25;;;0.50;76.14
68380;BME280;57711;53.196;19.638;2024-01-15T12:43:02;97147.41;;;0.43;76.26
68380;BME280;57711;53.196;19.638;2024-01-15T12:45:30;97153.41;;;0.34;76.39
68380;BME280;57711;53.196;19.638;2024-01-15T12:47:58;97151.68;;;0.26;76.56
68380;BME280;57711;53.196;19.638;2024-01-15T12:50:27;97160.81;;;0.24;76.29
68380;BME280;57711;53.196;19.638;2024-01-15T12:52:54;97162.80;;;0.22;76.34
68380;BME280;57711;53.196;19.638;2024-01-15T12:55:21;97157.42;;;0.20;76.32
68380;BME280;57711;53.196;19.638;2024-01-15T12:57:49;97157.34;;;0.21;76.32
68380;BME280;57711;53.196;19.638;2024-01-15T13:00:19;97148.68;;;0.22;76.19
68380;BME280;57711;53.196;19.638;2024-01-15T13:02:47;97144.46;;;0.24;76.26
68380;BME280;57711;53.196;19.638;2024-01-15T13:05:17;97147.27;;;0.26;76.36
68380;BME280;57711;53.196;19.638;2024-01-15T13:07:46;97151.06;;;0.29;76.31
68380;BME280;57711;53.196;19.638;2024-01-15T13:10:14;97157.51;;;0.30;76.28
68380;BME280;57711;53.196;19.638;2024-01-15T13:12:41;97168.05;;;0.33;76.27
68380;BME280;57711;53.196;19.638;2024-01-15T13:15:09;97170.93;;;0.31;77.34
68380;BME280;57711;53.196;19.638;2024-01-15T13:17:42;97180.31;;;0.24;77.42